Time;durP1;ratioP1;P1;durP2;ratioP2;P2;SDS_P1;SDS_P2;PMS_P1;PMS_P2;Temp;Humidity;BMP_temperature;BMP_pressure;BME280_temperature;BME280_humidity;BME280_pressure;Samples;Min_cycle;Max_cycle;Signal;HPM_P1;HPM_P2
2024/01/15 00:00:26;;;;;;;2.45;0.75;;;;;;;;;;2054088;28;20043;-82
2024/01/15 00:01:45;;;;;;;0.90;0.45;;;;;;;;;;2053381;28;20035;-83
2024/01/15 00:03:04;;;;;;;0.85;0.38;;;;;;;;;;2057888;28;20038;-82
2024/01/15 00:04:24;;;;;;;1.23;0.70;;;;;;;;;;2060462;28;20122;-83
2024/01/15 00:05:43;;;;;;;4.45;0.40;;;;;;;;;;2062557;28;20120;-82
2024/01/15 00:07:03;;;;;;;2.25;0.40;;;;;;;;;;2057497;28;20022;-83
2024/01/15 00:08:25;;;;;;;2.25;0.70;;;;;;;;;;2056069;28;20034;-82
2024/01/15 00:09:44;;;;;;;0.93;0.45;;;;;;;;;;2057719;28;20038;-82
2024/01/15 00:11:03;;;;;;;5.15;0.70;;;;;;;;;;2058955;28;20035;-82
2024/01/15 00:12:22;;;;;;;1.45;0.52;;;;;;;;;;2060402;28;20124;-83
2024/01/15 00:13:41;;;;;;;1.23;0.30;;;;;;;;;;2059202;28;20040;-83
2024/01/15 00:15:00;;;;;;;4.30;0.57;;;;;;;;;;2060229;28;20038;-82
2024/01/15 00:16:19;;;;;;;0.30;0.30;;;;;;;;;;2057605;28;20434;-83
2024/01/15 00:17:39;;;;;;;4.43;0.70;;;;;;;;;;2060537;28;20067;-81
2024/01/15 00:18:58;;;;;;;5.93;0.70;;;;;;;;;;2061945;28;20038;-83
2024/01/15 00:20:18;;;;;;;1.85;0.50;;;;;;;;;;2064534;28;20117;-84
2024/01/15 00:21:37;;;;;;;3.60;1.25;;;;;;;;;;2061817;28;20043;-83
2024/01/15 00:22:55;;;;;;;1.48;0.70;;;;;;;;;;2058451;28;20517;-83
2024/01/15 00:24:14;;;;;;;1.83;0.50;;;;;;;;;;2056923;28;20460;-82
2024/01/15 00:25:33;;;;;;;2.20;0.57;;;;;;;;;;2062817;28;20035;-83
2024/01/15 00:26:53;;;;;;;1.20;0.40;;;;;;;;;;2059923;28;20023;-83
2024/01/15 00:28:13;;;;;;;2.53;0.55;;;;;;;;;;2068232;28;20027;-83
2024/01/15 00:29:33;;;;;;;1.20;0.60;;;;;;;;;;2061456;28;20526;-83
2024/01/15 00:30:54;;;;;;;1.27;0.80;;;;;;;;;;2057987;28;20500;-82
2024/01/15 00:32:14;;;;;;;3.20;0.38;;;;;;;;;;2061037;28;20023;-84
2024/01/15 00:33:34;;;;;;;0.65;0.32;;;;;;;;;;2064473;28;20031;-82
2024/01/15 00:34:53;;;;;;;1.83;0.60;;;;;;;;;;2061579;28;20138;-84
2024/01/15 00:36:13;;;;;;;3.75;0.70;;;;;;;;;;2056918;28;20015;-83
2024/01/15 00:37:32;;;;;;;7.00;0.75;;;;;;;;;;2060070;28;20039;-82
2024/01/15 00:38:52;;;;;;;0.80;0.30;;;;;;;;;;2058052;28;20034;-83
2024/01/15 00:40:11;;;;;;;3.80;0.57;;;;;;;;;;2064441;28;20031;-83
2024/01/15 00:41:31;;;;;;;4.28;0.50;;;;;;;;;;2077700;28;20455;-82
2024/01/15 00:42:50;;;;;;;1.05;0.40;;;;;;;;;;2062112;28;20031;-85
2024/01/15 00:44:09;;;;;;;2.55;0.90;;;;;;;;;;2067521;28;20034;-83
2024/01/15 00:45:28;;;;;;;0.93;0.38;;;;;;;;;;2074453;28;20125;-83
2024/01/15 00:46:50;;;;;;;2.58;0.73;;;;;;;;;;2064586;28;20022;-82
2024/01/15 00:48:09;;;;;;;0.50;0.30;;;;;;;;;;2058959;28;20030;-82
2024/01/15 00:49:28;;;;;;;3.08;0.50;;;;;;;;;;2061389;28;20737;-83
2024/01/15 00:50:47;;;;;;;0.85;0.30;;;;;;;;;;2059800;28;20592;-83
2024/01/15 00:52:06;;;;;;;1.30;0.68;;;;;;;;;;2056814;28;20026;-82
2024/01/15 00:53:25;;;;;;;1.92;0.40;;;;;;;;;;2061149;28;20391;-83
2024/01/15 00:54:44;;;;;;;2.40;0.35;;;;;;;;;;2056559;28;20035;-83
2024/01/15 00:56:08;;;;;;;1.52;0.57;;;;;;;;;;2058744;28;20035;-82
2024/01/15 00:57:27;;;;;;;0.52;0.22;;;;;;;;;;2058340;28;20090;-84
2024/01/15 00:58:46;;;;;;;0.55;0.30;;;;;;;;;;2059677;28;20054;-82
2024/01/15 01:00:06;;;;;;;0.70;0.50;;;;;;;;;;2061472;28;20031;-83
2024/01/15 01:01:25;;;;;;;2.95;0.70;;;;;;;;;;2056238;28;20114;-82
2024/01/15 01:02:44;;;;;;;2.83;0.80;;;;;;;;;;2057684;28;20069;-83
2024/01/15 01:04:06;;;;;;;1.05;0.60;;;;;;;;;;2062379;28;20602;-83
2024/01/15 01:05:25;;;;;;;1.20;0.50;;;;;;;;;;2070278;28;20042;-84
2024/01/15 01:06:45;;;;;;;2.60;0.43;;;;;;;;;;2066200;28;20019;-85
2024/01/15 01:08:05;;;;;;;4.15;0.70;;;;;;;;;;2071935;28;20018;-82
2024/01/15 01:09:24;;;;;;;2.10;0.88;;;;;;;;;;2069422;28;20042;-83
2024/01/15 01:10:43;;;;;;;10.65;0.63;;;;;;;;;;2107816;28;20080;-83
2024/01/15 01:12:08;;;;;;;1.77;0.60;;;;;;;;;;2081784;28;20023;-82
2024/01/15 01:13:28;;;;;;;2.35;0.52;;;;;;;;;;2072803;28;20074;-84
2024/01/15 01:14:49;;;;;;;4.25;0.50;;;;;;;;;;2059946;28;20463;-84
2024/01/15 01:16:11;;;;;;;1.85;0.50;;;;;;;;;;2063541;28;20046;-83
2024/01/15 01:17:30;;;;;;;2.00;0.60;;;;;;;;;;2061392;28;20055;-83
2024/01/15 01:18:49;;;;;;;3.22;0.50;;;;;;;;;;2054699;28;20042;-84
2024/01/15 01:20:10;;;;;;;0.73;0.40;;;;;;;;;;2056140;28;20050;-84
2024/01/15 01:21:29;;;;;;;1.77;0.77;;;;;;;;;;2058354;28;20078;-83
2024/01/15 01:22:48;;;;;;;1.02;0.75;;;;;;;;;;2053087;28;20042;-84
2024/01/15 01:24:07;;;;;;;4.75;0.93;;;;;;;;;;2056359;28;20562;-83
2024/01/15 01:25:27;;;;;;;4.10;0.57;;;;;;;;;;2054479;28;20066;-84
2024/01/15 01:26:49;;;;;;;1.25;0.73;;;;;;;;;;2054596;28;20039;-85
2024/01/15 01:28:09;;;;;;;1.98;0.40;;;;;;;;;;2056455;28;20030;-83
2024/01/15 01:29:28;;;;;;;1.58;0.65;;;;;;;;;;2054718;28;20046;-83
2024/01/15 01:30:47;;;;;;;2.55;0.50;;;;;;;;;;2056866;28;20134;-83
2024/01/15 01:32:06;;;;;;;0.88;0.50;;;;;;;;;;2055520;28;20448;-84
2024/01/15 01:33:25;;;;;;;5.55;0.60;;;;;;;;;;2057636;28;20062;-82
2024/01/15 01:34:46;;;;;;;4.40;0.57;;;;;;;;;;2056356;28;20023;-82
2024/01/15 01:36:09;;;;;;;1.35;0.50;;;;;;;;;;2057078;28;20035;-83
2024/01/15 01:37:28;;;;;;;1.65;0.40;;;;;;;;;;2056552;28;20262;-83
2024/01/15 01:38:49;;;;;;;1.45;0.43;;;;;;;;;;2058418;28;20030;-83
2024/01/15 01:40:09;;;;;;;1.88;0.30;;;;;;;;;;2056959;28;20039;-82
2024/01/15 01:41:28;;;;;;;1.55;0.50;;;;;;;;;;2057498;28;20488;-82
2024/01/15 01:42:47;;;;;;;2.05;0.60;;;;;;;;;;2056011;28;20082;-82
2024/01/15 01:44:09;;;;;;;1.38;0.55;;;;;;;;;;2059789;28;20027;-82
2024/01/15 01:45:30;;;;;;;2.08;0.70;;;;;;;;;;2099291;28;20048;-82
2024/01/15 01:46:49;;;;;;;4.20;0.30;;;;;;;;;;2072896;28;20038;-82
2024/01/15 01:48:10;;;;;;;1.38;0.40;;;;;;;;;;2056410;28;20535;-82
2024/01/15 01:49:29;;;;;;;3.35;1.08;;;;;;;;;;2053909;28;20134;-82
2024/01/15 01:50:49;;;;;;;1.95;0.43;;;;;;;;;;2053821;28;20034;-81
2024/01/15 01:52:11;;;;;;;2.22;0.40;;;;;;;;;;2056364;28;20487;-81
2024/01/15 01:53:35;;;;;;;3.80;0.50;;;;;;;;;;2096925;28;20032;-81
2024/01/15 01:54:55;;;;;;;2.35;0.55;;;;;;;;;;2080026;28;20415;-81
2024/01/15 01:56:14;;;;;;;4.30;0.40;;;;;;;;;;2061042;28;20031;-82
2024/01/15 01:57:36;;;;;;;4.60;0.70;;;;;;;;;;2058875;28;20481;-82
2024/01/15 01:58:56;;;;;;;1.33;0.40;;;;;;;;;;2062710;28;20457;-83
2024/01/15 02:00:17;;;;;;;1.23;0.50;;;;;;;;;;2100931;28;20052;-82
2024/01/15 02:01:36;;;;;;;0.93;0.30;;;;;;;;;;2073988;28;20079;-83
2024/01/15 02:02:55;;;;;;;2.20;0.70;;;;;;;;;;2056559;28;20027;-82
2024/01/15 02:04:14;;;;;;;2.60;0.50;;;;;;;;;;2054260;28;20034;-82
2024/01/15 02:05:35;;;;;;;3.47;0.50;;;;;;;;;;2057942;28;20038;-82
2024/01/15 02:06:54;;;;;;;3.60;0.40;;;;;;;;;;2055959;28;20043;-81
2024/01/15 02:08:13;;;;;;;2.08;0.40;;;;;;;;;;2055924;28;20043;-83
2024/01/15 02:09:34;;;;;;;2.22;0.40;;;;;;;;;;2058499;28;20035;-82
2024/01/15 02:10:53;;;;;;;3.28;0.63;;;;;;;;;;2059151;28;20043;-82
2024/01/15 02:12:13;;;;;;;4.13;0.50;;;;;;;;;;2056229;28;20105;-82
2024/01/15 02:13:33;;;;;;;0.90;0.50;;;;;;;;;;2053793;28;20488;-82
2024/01/15 02:14:52;;;;;;;0.73;0.30;;;;;;;;;;2058413;28;20117;-81
2024/01/15 02:16:11;;;;;;;0.77;0.50;;;;;;;;;;2058199;28;20054;-81
2024/01/15 02:17:32;;;;;;;3.42;0.43;;;;;;;;;;2059202;28;21006;-83
2024/01/15 02:18:51;;;;;;;1.30;0.60;;;;;;;;;;2056846;28;20034;-84
2024/01/15 02:20:11;;;;;;;4.25;0.63;;;;;;;;;;2060710;28;20034;-83
2024/01/15 02:21:37;;;;;;;1.25;0.32;;;;;;;;;;2063944;28;20038;-84
2024/01/15 02:23:13;;;;;;;1.40;0.30;;;;;;;;;;2068957;28;20022;-83
2024/01/15 02:24:32;;;;;;;3.75;0.63;;;;;;;;;;2065899;28;20050;-82
2024/01/15 02:25:51;;;;;;;2.60;0.95;;;;;;;;;;2059679;28;20067;-82
2024/01/15 02:27:10;;;;;;;1.15;0.47;;;;;;;;;;2058990;28;20049;-82
2024/01/15 02:28:33;;;;;;;1.25;0.30;;;;;;;;;;2058305;28;20030;-83
2024/01/15 02:29:53;;;;;;;1.38;0.65;;;;;;;;;;2060523;28;20035;-82
2024/01/15 02:31:12;;;;;;;2.50;0.40;;;;;;;;;;2055973;28;20427;-82
2024/01/15 02:32:33;;;;;;;2.15;0.90;;;;;;;;;;2055639;28;20628;-83
2024/01/15 02:33:53;;;;;;;1.20;0.70;;;;;;;;;;2063573;28;20034;-82
2024/01/15 02:35:12;;;;;;;1.83;0.40;;;;;;;;;;2058658;28;20035;-82
2024/01/15 02:36:33;;;;;;;1.75;0.50;;;;;;;;;;2057420;28;20018;-82
2024/01/15 02:37:52;;;;;;;4.55;0.70;;;;;;;;;;2060425;28;20035;-84
2024/01/15 02:39:11;;;;;;;0.40;0.40;;;;;;;;;;2061984;28;20035;-81
2024/01/15 02:40:31;;;;;;;2.42;0.70;;;;;;;;;;2057025;28;20457;-81
2024/01/15 02:41:50;;;;;;;1.33;0.32;;;;;;;;;;2056013;28;20042;-81
2024/01/15 02:43:13;;;;;;;1.55;0.35;;;;;;;;;;2058653;28;20115;-81
2024/01/15 02:44:32;;;;;;;2.30;0.50;;;;;;;;;;2059431;28;20038;-82
2024/01/15 02:45:51;;;;;;;0.70;0.38;;;;;;;;;;2063658;28;20026;-81
2024/01/15 02:47:10;;;;;;;1.52;0.50;;;;;;;;;;2056996;28;20030;-82
2024/01/15 02:48:29;;;;;;;3.97;0.50;;;;;;;;;;2059199;28;20026;-81
2024/01/15 02:49:51;;;;;;;1.50;0.60;;;;;;;;;;2057764;28;20046;-81
2024/01/15 02:51:11;;;;;;;2.78;0.30;;;;;;;;;;2066089;28;20030;-82
2024/01/15 02:52:30;;;;;;;1.30;0.60;;;;;;;;;;2060420;28;20548;-82
2024/01/15 02:53:50;;;;;;;0.77;0.43;;;;;;;;;;2059318;28;20760;-81
2024/01/15 02:55:09;;;;;;;0.85;0.32;;;;;;;;;;2057704;28;20026;-85
2024/01/15 02:56:31;;;;;;;4.90;0.93;;;;;;;;;;2059108;28;20578;-81
2024/01/15 02:57:52;;;;;;;3.22;0.70;;;;;;;;;;2061008;28;20042;-81
2024/01/15 02:59:12;;;;;;;4.78;0.30;;;;;;;;;;2057624;28;20055;-82
2024/01/15 03:00:31;;;;;;;2.38;0.60;;;;;;;;;;2071595;28;20031;-82
2024/01/15 03:01:50;;;;;;;0.50;0.40;;;;;;;;;;2058069;28;20113;-82
2024/01/15 03:03:09;;;;;;;1.75;0.60;;;;;;;;;;2061264;28;20043;-82
2024/01/15 03:04:29;;;;;;;2.00;0.70;;;;;;;;;;2060404;28;20043;-83
2024/01/15 03:05:51;;;;;;;0.50;0.50;;;;;;;;;;2064859;28;20523;-83
2024/01/15 03:07:16;;;;;;;0.52;0.30;;;;;;;;;;2061439;28;20034;-82
2024/01/15 03:08:35;;;;;;;0.90;0.40;;;;;;;;;;2063856;28;20473;-83
2024/01/15 03:09:54;;;;;;;0.77;0.45;;;;;;;;;;2057370;28;20508;-82
2024/01/15 03:11:14;;;;;;;3.05;0.90;;;;;;;;;;2066279;28;20112;-81
2024/01/15 03:12:33;;;;;;;1.20;0.95;;;;;;;;;;2059218;28;20047;-82
2024/01/15 03:13:55;;;;;;;1.13;0.45;;;;;;;;;;2056731;28;20027;-83
2024/01/15 03:15:14;;;;;;;3.00;0.50;;;;;;;;;;2058799;28;20158;-84
2024/01/15 03:16:33;;;;;;;0.95;0.45;;;;;;;;;;2054244;28;20039;-84
2024/01/15 03:17:53;;;;;;;0.85;0.40;;;;;;;;;;2057540;28;20031;-82
2024/01/15 03:19:14;;;;;;;1.58;0.68;;;;;;;;;;2059972;28;20035;-82
2024/01/15 03:20:33;;;;;;;3.13;0.60;;;;;;;;;;2064579;28;20039;-83
2024/01/15 03:21:53;;;;;;;4.35;1.02;;;;;;;;;;2059209;28;20050;-83
2024/01/15 03:23:12;;;;;;;1.13;0.40;;;;;;;;;;2061159;28;20053;-83
2024/01/15 03:24:31;;;;;;;7.28;0.60;;;;;;;;;;2057892;28;20062;-81
2024/01/15 03:25:50;;;;;;;2.35;0.50;;;;;;;;;;2060592;28;20043;-84
2024/01/15 03:27:12;;;;;;;3.33;0.50;;;;;;;;;;2060379;28;20054;-82
2024/01/15 03:28:31;;;;;;;0.45;0.20;;;;;;;;;;2057619;28;20026;-81
2024/01/15 03:29:56;;;;;;;1.27;0.50;;;;;;;;;;2059523;28;20027;-82
2024/01/15 03:31:15;;;;;;;2.33;0.43;;;;;;;;;;2058530;28;20030;-82
2024/01/15 03:32:37;;;;;;;3.15;0.75;;;;;;;;;;2058772;28;20022;-82
2024/01/15 03:33:59;;;;;;;3.38;1.27;;;;;;;;;;2065420;28;20026;-82
2024/01/15 03:35:21;;;;;;;1.08;0.40;;;;;;;;;;2060714;28;20031;-82
2024/01/15 03:36:40;;;;;;;2.97;0.40;;;;;;;;;;2060072;28;20030;-82
2024/01/15 03:37:59;;;;;;;1.38;0.40;;;;;;;;;;2058133;28;20030;-83
2024/01/15 03:39:19;;;;;;;0.73;0.45;;;;;;;;;;2060492;28;20026;-82
2024/01/15 03:40:38;;;;;;;2.95;0.50;;;;;;;;;;2061508;28;20031;-82
2024/01/15 03:41:57;;;;;;;0.70;0.35;;;;;;;;;;2060347;28;20515;-82
2024/01/15 03:43:17;;;;;;;1.17;0.63;;;;;;;;;;2059274;28;20153;-83
2024/01/15 03:44:36;;;;;;;1.30;0.43;;;;;;;;;;2060256;28;20404;-82
2024/01/15 03:46:05;;;;;;;0.70;0.45;;;;;;;;;;2059193;28;20070;-82
2024/01/15 03:47:24;;;;;;;2.17;0.68;;;;;;;;;;2059574;28;20069;-82
2024/01/15 03:48:52;;;;;;;1.17;0.70;;;;;;;;;;2057833;28;20027;-82
2024/01/15 03:50:11;;;;;;;4.25;0.60;;;;;;;;;;2103207;28;20040;-82
2024/01/15 03:51:31;;;;;;;1.13;0.47;;;;;;;;;;2081396;28;20037;-81
2024/01/15 03:52:49;;;;;;;1.35;0.50;;;;;;;;;;2062883;28;20024;-82
2024/01/15 03:54:09;;;;;;;3.33;0.57;;;;;;;;;;2062120;28;20066;-82
2024/01/15 03:55:28;;;;;;;1.73;0.50;;;;;;;;;;2064780;28;20034;-82
2024/01/15 03:56:47;;;;;;;2.05;0.63;;;;;;;;;;2060943;28;20026;-82
2024/01/15 03:58:06;;;;;;;1.30;0.60;;;;;;;;;;2064944;28;20026;-82
2024/01/15 03:59:25;;;;;;;1.35;0.40;;;;;;;;;;2055758;28;20043;-82
2024/01/15 04:00:44;;;;;;;2.60;0.50;;;;;;;;;;2060024;28;20038;-82
2024/01/15 04:02:04;;;;;;;2.55;0.95;;;;;;;;;;2057593;28;20035;-83
2024/01/15 04:03:23;;;;;;;2.33;0.77;;;;;;;;;;2062431;28;20037;-82
2024/01/15 04:04:45;;;;;;;2.95;0.40;;;;;;;;;;2056692;28;20042;-82
2024/01/15 04:06:14;;;;;;;1.60;0.60;;;;;;;;;;2061761;28;20069;-83
2024/01/15 04:07:34;;;;;;;2.72;0.60;;;;;;;;;;2069520;28;20042;-83
2024/01/15 04:08:59;;;;;;;2.08;0.75;;;;;;;;;;2066353;28;20030;-82
2024/01/15 04:10:20;;;;;;;0.70;0.63;;;;;;;;;;2069447;28;20034;-82
2024/01/15 04:11:39;;;;;;;1.73;0.50;;;;;;;;;;2062486;28;20035;-82
2024/01/15 04:13:01;;;;;;;1.42;0.95;;;;;;;;;;2061884;28;20038;-82
2024/01/15 04:14:20;;;;;;;0.70;0.70;;;;;;;;;;2099144;28;20111;-80
2024/01/15 04:15:42;;;;;;;1.20;0.50;;;;;;;;;;2074647;28;20062;-82
2024/01/15 04:17:06;;;;;;;6.97;0.70;;;;;;;;;;2070597;28;20038;-82
2024/01/15 04:18:28;;;;;;;2.05;0.70;;;;;;;;;;2059676;28;20245;-82
2024/01/15 04:19:52;;;;;;;1.67;0.70;;;;;;;;;;2059260;28;20034;-82
2024/01/15 04:21:11;;;;;;;5.97;0.90;;;;;;;;;;2065981;28;20014;-83
2024/01/15 04:22:31;;;;;;;2.50;0.68;;;;;;;;;;2070403;28;20040;-83
2024/01/15 04:23:50;;;;;;;2.42;0.70;;;;;;;;;;2059364;28;20058;-82
2024/01/15 04:25:09;;;;;;;0.80;0.60;;;;;;;;;;2058330;28;20058;-82
2024/01/15 04:26:28;;;;;;;2.15;0.68;;;;;;;;;;2059031;28;20042;-82
2024/01/15 04:27:47;;;;;;;1.60;0.70;;;;;;;;;;2099422;28;20020;-82
2024/01/15 04:29:06;;;;;;;1.67;0.75;;;;;;;;;;2078628;28;20026;-85
2024/01/15 04:30:25;;;;;;;2.70;0.68;;;;;;;;;;2075706;28;20030;-82
2024/01/15 04:31:44;;;;;;;0.80;0.63;;;;;;;;;;2068402;28;20022;-84
2024/01/15 04:33:07;;;;;;;3.67;0.70;;;;;;;;;;2075515;28;20026;-82
2024/01/15 04:34:27;;;;;;;2.17;0.70;;;;;;;;;;2068865;28;20492;-82
2024/01/15 04:35:48;;;;;;;0.63;0.40;;;;;;;;;;2061429;28;20043;-82
2024/01/15 04:37:14;;;;;;;2.13;0.73;;;;;;;;;;2059200;28;20030;-82
2024/01/15 04:38:36;;;;;;;2.20;0.80;;;;;;;;;;2070522;28;20073;-83
2024/01/15 04:39:55;;;;;;;2.83;1.08;;;;;;;;;;2059089;28;20070;-83
2024/01/15 04:41:15;;;;;;;2.95;0.60;;;;;;;;;;2063123;28;20031;-82
2024/01/15 04:42:34;;;;;;;7.47;0.90;;;;;;;;;;2060548;28;20038;-82
2024/01/15 04:43:53;;;;;;;1.10;0.82;;;;;;;;;;2054890;28;20039;-82
2024/01/15 04:45:14;;;;;;;0.50;0.50;;;;;;;;;;2057573;28;20038;-82
2024/01/15 04:46:33;;;;;;;0.88;0.70;;;;;;;;;;2064962;28;20030;-82
2024/01/15 04:47:52;;;;;;;0.80;0.80;;;;;;;;;;2059896;28;20121;-82
2024/01/15 04:49:12;;;;;;;4.32;1.10;;;;;;;;;;2059207;28;20034;-82
2024/01/15 04:50:30;;;;;;;2.85;0.98;;;;;;;;;;2059861;28;20042;-83
2024/01/15 04:51:50;;;;;;;1.02;0.80;;;;;;;;;;2056042;28;20043;-82
2024/01/15 04:53:09;;;;;;;12.30;1.23;;;;;;;;;;2060883;28;20034;-82
2024/01/15 04:54:28;;;;;;;5.25;1.02;;;;;;;;;;2059754;28;20035;-82
2024/01/15 04:55:50;;;;;;;1.15;0.80;;;;;;;;;;2065973;28;20028;-83
2024/01/15 04:57:09;;;;;;;0.60;0.60;;;;;;;;;;2069145;28;20037;-82
2024/01/15 04:58:28;;;;;;;2.00;1.00;;;;;;;;;;2065774;28;20228;-82
2024/01/15 04:59:50;;;;;;;2.22;0.70;;;;;;;;;;2061237;28;20026;-82
2024/01/15 05:01:09;;;;;;;1.38;0.80;;;;;;;;;;2063844;28;20035;-82
2024/01/15 05:02:28;;;;;;;2.13;1.27;;;;;;;;;;2060281;28;20149;-82
2024/01/15 05:03:48;;;;;;;2.80;1.27;;;;;;;;;;2060018;28;20030;-82
2024/01/15 05:05:07;;;;;;;2.33;0.95;;;;;;;;;;2058971;28;20092;-82
2024/01/15 05:06:30;;;;;;;0.80;0.80;;;;;;;;;;2060069;28;20030;-82
2024/01/15 05:07:49;;;;;;;0.70;0.70;;;;;;;;;;2061986;28;20110;-83
2024/01/15 05:09:08;;;;;;;1.50;1.00;;;;;;;;;;2066341;28;20066;-81
2024/01/15 05:10:27;;;;;;;0.98;0.80;;;;;;;;;;2060304;28;20042;-82
2024/01/15 05:11:46;;;;;;;2.05;1.00;;;;;;;;;;2063629;28;20415;-82
2024/01/15 05:13:11;;;;;;;1.92;1.40;;;;;;;;;;2062675;28;20037;-82
2024/01/15 05:14:30;;;;;;;1.00;0.80;;;;;;;;;;2059328;28;20026;-82
2024/01/15 05:15:50;;;;;;;1.10;0.77;;;;;;;;;;2060873;28;20034;-82
2024/01/15 05:17:09;;;;;;;2.40;0.93;;;;;;;;;;2055949;28;20038;-83
2024/01/15 05:18:43;;;;;;;1.42;1.17;;;;;;;;;;2061649;28;20038;-83
2024/01/15 05:20:03;;;;;;;1.02;0.88;;;;;;;;;;2066274;28;20101;-81
2024/01/15 05:21:28;;;;;;;1.25;0.85;;;;;;;;;;2060848;28;20034;-83
2024/01/15 05:22:47;;;;;;;2.10;1.10;;;;;;;;;;2061388;28;20034;-81
2024/01/15 05:24:06;;;;;;;3.95;1.38;;;;;;;;;;2055742;28;20026;-83
2024/01/15 05:25:25;;;;;;;2.05;1.10;;;;;;;;;;2053738;28;20026;-83
2024/01/15 05:26:44;;;;;;;3.28;1.20;;;;;;;;;;2098095;28;20036;-82
2024/01/15 05:28:04;;;;;;;1.80;1.00;;;;;;;;;;2071651;28;20027;-82
2024/01/15 05:29:26;;;;;;;1.20;1.10;;;;;;;;;;2060241;28;20162;-81
2024/01/15 05:30:48;;;;;;;5.70;1.40;;;;;;;;;;2055893;28;20034;-82
2024/01/15 05:32:07;;;;;;;3.90;1.35;;;;;;;;;;2060408;28;20035;-81
2024/01/15 05:33:26;;;;;;;6.22;1.25;;;;;;;;;;2059022;28;20035;-79
2024/01/15 05:34:44;;;;;;;1.90;0.80;;;;;;;;;;2061483;28;20577;-82
2024/01/15 05:36:13;;;;;;;4.72;1.20;;;;;;;;;;2058080;28;20019;-84
2024/01/15 05:37:33;;;;;;;2.10;1.60;;;;;;;;;;2057340;28;20038;-84
2024/01/15 05:38:52;;;;;;;1.98;1.23;;;;;;;;;;2056597;28;20054;-82
2024/01/15 05:40:23;;;;;;;1.95;1.00;;;;;;;;;;2055458;28;20034;-85
2024/01/15 05:41:53;;;;;;;1.38;1.20;;;;;;;;;;2057822;28;20387;-86
2024/01/15 05:43:23;;;;;;;2.80;1.30;;;;;;;;;;2057682;28;20039;-86
2024/01/15 05:45:03;;;;;;;1.20;1.10;;;;;;;;;;2056368;28;20023;-87
2024/01/15 05:46:34;;;;;;;1.50;1.23;;;;;;;;;;2067426;28;20098;-87
2024/01/15 05:48:22;;;;;;;1.33;1.15;;;;;;;;;;2053804;28;20037;-87
2024/01/15 05:49:44;;;;;;;2.63;1.08;;;;;;;;;;2063405;28;20046;-87
2024/01/15 05:51:32;;;;;;;3.05;1.08;;;;;;;;;;2099433;28;20490;-88
2024/01/15 05:53:02;;;;;;;;;;;;;;;;;;;;;
2024/01/15 05:54:21;;;;;;;1.08;0.93;;;;;;;;;;2059538;28;20419;-85
2024/01/15 05:58:23;;;;;;;1.15;1.05;;;;;;;;;;2042732;28;20030;-87
2024/01/15 05:59:54;;;;;;;2.92;1.23;;;;;;;;;;2061502;28;20099;-86
2024/01/15 06:01:16;;;;;;;3.20;1.15;;;;;;;;;;2057744;28;20443;-84
2024/01/15 06:02:37;;;;;;;3.60;1.17;;;;;;;;;;2056779;28;20069;-83
2024/01/15 06:04:28;;;;;;;2.88;1.25;;;;;;;;;;2056944;28;20035;-85
2024/01/15 06:05:50;;;;;;;4.07;1.08;;;;;;;;;;2059528;28;20039;-85
2024/01/15 06:07:11;;;;;;;2.40;1.17;;;;;;;;;;2098757;28;20095;-84
2024/01/15 06:08:30;;;;;;;1.83;1.40;;;;;;;;;;2072577;28;20038;-84
2024/01/15 06:09:53;;;;;;;1.40;1.30;;;;;;;;;;2057172;28;20031;-84
2024/01/15 06:11:14;;;;;;;2.63;1.20;;;;;;;;;;2051620;28;20039;-85
2024/01/15 06:12:44;;;;;;;2.83;1.23;;;;;;;;;;2055776;28;20117;-85
2024/01/15 06:14:03;;;;;;;2.40;1.15;;;;;;;;;;2060962;28;20041;-83
2024/01/15 06:15:51;;;;;;;3.40;1.25;;;;;;;;;;2053555;28;20407;-85
2024/01/15 06:17:37;;;;;;;7.55;1.75;;;;;;;;;;2059697;28;20027;-88
2024/01/15 06:18:59;;;;;;;2.47;1.52;;;;;;;;;;2060529;28;20038;-87
2024/01/15 06:20:23;;;;;;;1.10;1.00;;;;;;;;;;2055589;28;20034;-87
2024/01/15 06:21:55;;;;;;;1.77;1.40;;;;;;;;;;2057515;28;20481;-84
2024/01/15 06:23:24;;;;;;;1.02;0.93;;;;;;;;;;2057977;28;20111;-83
2024/01/15 06:24:56;;;;;;;2.67;1.48;;;;;;;;;;2063195;28;20046;-85
2024/01/15 06:26:15;;;;;;;2.58;1.90;;;;;;;;;;2058591;28;20022;-82
2024/01/15 06:27:34;;;;;;;4.07;1.40;;;;;;;;;;2060441;28;20031;-83
2024/01/15 06:28:56;;;;;;;2.38;1.40;;;;;;;;;;2055367;28;20047;-83
2024/01/15 06:30:43;;;;;;;5.30;1.73;;;;;;;;;;2057676;28;20034;-83
2024/01/15 06:32:03;;;;;;;3.92;1.58;;;;;;;;;;2061087;28;20498;-85
2024/01/15 06:33:47;;;;;;;3.50;1.83;;;;;;;;;;2098199;28;20052;-84
2024/01/15 06:35:19;;;;;;;5.50;2.15;;;;;;;;;;2062380;28;20026;-84
2024/01/15 06:36:39;;;;;;;1.98;1.63;;;;;;;;;;2058594;28;20104;-84
2024/01/15 06:38:00;;;;;;;7.15;1.92;;;;;;;;;;2056021;28;20035;-82
2024/01/15 06:39:52;;;;;;;3.42;2.25;;;;;;;;;;2059010;28;21196;-83
2024/01/15 06:41:18;;;;;;;3.67;2.00;;;;;;;;;;2059093;28;20039;-83
2024/01/15 06:42:49;;;;;;;3.88;2.10;;;;;;;;;;2057715;28;20039;-83
2024/01/15 06:44:27;;;;;;;2.95;1.98;;;;;;;;;;2056548;28;20050;-83
2024/01/15 06:45:49;;;;;;;3.72;2.00;;;;;;;;;;2068883;28;20042;-83
2024/01/15 06:47:09;;;;;;;2.40;1.73;;;;;;;;;;2058828;28;20046;-83
2024/01/15 06:48:52;;;;;;;4.57;2.30;;;;;;;;;;2060659;28;20038;-83
2024/01/15 06:50:12;;;;;;;2.15;1.95;;;;;;;;;;2057155;28;20476;-83
2024/01/15 06:51:44;;;;;;;;;;;;;;;;;;;;;
2024/01/15 06:53:17;;;;;;;2.92;2.45;;;;;;;;;;2059146;28;20026;-85
2024/01/15 06:54:39;;;;;;;3.13;2.10;;;;;;;;;;2058605;28;20026;-84
2024/01/15 06:55:59;;;;;;;4.32;2.50;;;;;;;;;;2050090;28;20047;-85
2024/01/15 06:57:38;;;;;;;3.38;2.20;;;;;;;;;;2053102;28;20039;-83
2024/01/15 06:58:59;;;;;;;15.45;2.55;;;;;;;;;;2061193;28;20030;-83
2024/01/15 07:00:33;;;;;;;3.23;2.40;;;;;;;;;;2059929;28;20448;-84
2024/01/15 07:01:55;;;;;;;6.65;2.60;;;;;;;;;;2057642;28;20310;-84
2024/01/15 07:03:20;;;;;;;5.10;2.55;;;;;;;;;;2097682;28;20024;-84
2024/01/15 07:04:50;;;;;;;2.95;1.77;;;;;;;;;;2068575;28;20121;-85
2024/01/15 07:06:19;;;;;;;6.22;2.47;;;;;;;;;;2057205;28;20121;-84
2024/01/15 07:07:39;;;;;;;3.35;2.30;;;;;;;;;;2058432;28;20154;-84
2024/01/15 07:08:58;;;;;;;4.15;2.38;;;;;;;;;;2103600;28;20028;-85
2024/01/15 07:10:27;;;;;;;3.30;2.25;;;;;;;;;;2079273;28;20030;-84
2024/01/15 07:11:47;;;;;;;2.38;2.08;;;;;;;;;;2069038;28;20058;-86
2024/01/15 07:13:09;;;;;;;2.97;2.22;;;;;;;;;;2065113;28;20026;-85
2024/01/15 07:14:28;;;;;;;3.65;2.13;;;;;;;;;;2056470;28;20030;-84
2024/01/15 07:15:53;;;;;;;3.28;2.15;;;;;;;;;;2056798;28;20528;-84
2024/01/15 07:17:20;;;;;;;2.30;2.08;;;;;;;;;;2059680;28;20050;-84
2024/01/15 07:18:51;;;;;;;3.53;1.90;;;;;;;;;;2059794;28;20077;-84
2024/01/15 07:20:13;;;;;;;2.60;1.70;;;;;;;;;;2059388;28;20607;-84
2024/01/15 07:21:39;;;;;;;4.40;1.75;;;;;;;;;;2066201;28;20080;-85
2024/01/15 07:23:02;;;;;;;3.22;1.77;;;;;;;;;;2061343;28;20515;-84
2024/01/15 07:24:24;;;;;;;1.95;1.73;;;;;;;;;;2053945;28;20031;-84
2024/01/15 07:25:46;;;;;;;2.33;1.58;;;;;;;;;;2054323;28;20047;-85
2024/01/15 07:27:08;;;;;;;3.15;1.50;;;;;;;;;;2049975;28;20035;-83
2024/01/15 07:28:34;;;;;;;3.58;1.85;;;;;;;;;;2048165;28;20039;-83
2024/01/15 07:29:53;;;;;;;1.58;1.48;;;;;;;;;;2058101;28;20490;-84
2024/01/15 07:31:13;;;;;;;3.97;1.80;;;;;;;;;;2048698;28;20023;-85
2024/01/15 07:32:44;;;;;;;2.40;1.40;;;;;;;;;;2044415;28;20028;-84
2024/01/15 07:34:27;;;;;;;2.53;1.50;;;;;;;;;;2058912;28;20240;-83
2024/01/15 07:35:46;;;;;;;1.52;1.42;;;;;;;;;;2045186;28;20043;-84
2024/01/15 07:37:05;;;;;;;2.70;1.40;;;;;;;;;;2085382;28;20116;-85
2024/01/15 07:38:24;;;;;;;2.50;1.40;;;;;;;;;;2059848;28;20031;-83
2024/01/15 07:39:49;;;;;;;2.30;1.25;;;;;;;;;;2043259;28;20051;-84
2024/01/15 07:41:08;;;;;;;1.75;1.20;;;;;;;;;;2053761;28;20022;-84
2024/01/15 07:42:31;;;;;;;2.13;1.10;;;;;;;;;;2051011;28;20033;-84
2024/01/15 07:43:50;;;;;;;1.60;0.90;;;;;;;;;;2048199;28;20023;-84
2024/01/15 07:45:35;;;;;;;;;;;;;;;;;;;;;
2024/01/15 07:47:14;;;;;;;1.92;0.82;;;;;;;;;;2053914;28;20023;-84
2024/01/15 07:48:39;;;;;;;1.60;0.95;;;;;;;;;;2057988;28;20039;-84
2024/01/15 07:50:11;;;;;;;1.08;0.70;;;;;;;;;;2045875;28;20027;-85
2024/01/15 07:51:36;;;;;;;1.27;0.70;;;;;;;;;;2085316;28;20097;-84
2024/01/15 07:53:11;;;;;;;;;;;;;;;;;;;;;
2024/01/15 07:54:35;;;;;;;4.45;0.80;;;;;;;;;;2053705;28;20042;-85
2024/01/15 07:57:49;;;;;;;1.23;0.75;;;;;;;;;;2078430;28;20026;-85
2024/01/15 07:59:24;;;;;;;;;;;;;;;;;;;;;
2024/01/15 08:00:47;;;;;;;1.00;0.57;;;;;;;;;;2077964;28;20148;-85
2024/01/15 08:02:25;;;;;;;2.47;0.68;;;;;;;;;;2078358;28;20025;-85
2024/01/15 08:04:35;;;;;;;;;;;;;;;;;;;;;
2024/01/15 08:06:21;;;;;;;1.98;0.77;;;;;;;;;;2081597;28;20109;-88
2024/01/15 08:12:31;;;;;;;;;;;;;;;;;;;;;
2024/01/15 08:16:19;;;;;;;;;;;;;;;;;;;;;
2024/01/15 08:18:03;;;;;;;2.63;0.60;;;;;;;;;;2033449;28;20032;-85
2024/01/15 08:19:28;;;;;;;2.90;0.40;;;;;;;;;;2031550;28;20553;-85
2024/01/15 08:20:55;;;;;;;3.28;0.68;;;;;;;;;;2024669;28;20036;-85
2024/01/15 08:22:14;;;;;;;2.25;0.60;;;;;;;;;;2021558;28;20064;-84
2024/01/15 08:25:17;;;;;;;2.60;0.50;;;;;;;;;;2023638;28;20037;-83
2024/01/15 08:27:10;;;;;;;1.10;0.75;;;;;;;;;;2064385;28;20034;-85
2024/01/15 08:29:07;;;;;;;1.95;0.55;;;;;;;;;;2027683;29;20040;-85
2024/01/15 08:30:37;;;;;;;1.60;0.55;;;;;;;;;;2044385;28;20064;-85
2024/01/15 08:32:19;;;;;;;3.25;0.85;;;;;;;;;;2030945;29;20068;-85
2024/01/15 08:34:13;;;;;;;1.10;0.50;;;;;;;;;;2044811;28;20617;-85